CW8733 Weather Reports


Display with metric or nautical units.
time (UTC)temp
F
wind
direction
speed
MPH
gust
MPH
rain 1hr
in
rain 24hr
in
rain mn
in
humidity
%
barometer
mb
20240224012517 67 158 3.0 4.0 0.00 0.00 0.00 40 1015.9
20240224011558 69 135 2.0 3.0 0.00 0.00 0.00 38 1016.1
20240224010517 70 248 2.0 4.0 0.00 0.00 0.00 35 1016.1
20240224005517 70 248 2.0 4.0 0.00 0.00 0.00 35 1016.1
20240224004517 71 248 4.0 8.0 0.00 0.00 0.00 33 1016.0
20240224003517 72 248 7.0 11.0 0.00 0.00 0.00 32 1016.1
20240224002517 74 248 7.0 11.0 0.00 0.00 0.00 30 1016.2
20240224001517 75 338 2.0 6.0 0.00 0.00 0.00 24 1015.9
20240224000517 75 68 2.0 7.0 0.00 0.00 0.00 23 1015.8
20240223235517 75 45 5.0 9.0 0.00 0.00 0.00 23 1015.7
20240223234537 76 45 9.0 16.0 0.00 0.00 0.00 24 1015.8
20240223233517 76 203 2.0 5.0 0.00 0.00 0.00 24 1015.9
20240223232517 76 338 2.0 8.0 0.00 0.00 0.00 24 1016.1
20240223231517 76 135 3.0 4.0 0.00 0.00 0.00 25 1016.2
20240223230537 76 270 3.0 5.0 0.00 0.00 0.00 24 1016.4
20240223225517 76 248 3.0 6.0 0.00 0.00 0.00 25 1016.4
20240223224517 75 248 2.0 6.0 0.00 0.00 0.00 25 1016.5
20240223223517 75 293 5.0 9.0 0.00 0.00 0.00 26 1016.7
20240223222517 75 338 2.0 6.0 0.00 0.00 0.00 27 1017.1
20240223221537 74 293 3.0 6.0 0.00 0.00 0.00 29 1017.0
20240223220517 74 293 3.0 6.0 0.00 0.00 0.00 30 1017.1
20240223215517 74 293 3.0 6.0 0.00 0.00 0.00 28 1016.8
20240223214517 74 270 2.0 6.0 0.00 0.00 0.00 28 1017.0
20240223213517 73 270 3.0 5.0 0.00 0.00 0.00 28 1017.2
20240223212517 73 248 3.0 6.0 0.00 0.00 0.00 28 1017.0
20240223211517 73 248 4.0 8.0 0.00 0.00 0.00 29 1016.8
20240223210517 73 270 5.0 8.0 0.00 0.00 0.00 30 1017.0
20240223205517 73 315 3.0 5.0 0.00 0.00 0.00 30 1017.4
20240223204517 73 248 4.0 7.0 0.00 0.00 0.00 31 1017.3
20240223203517 72 270 4.0 7.0 0.00 0.00 0.00 31 1017.4
20240223202517 72 248 4.0 7.0 0.00 0.00 0.00 32 1017.8
20240223201517 72 248 5.0 8.0 0.00 0.00 0.00 31 1017.9
20240223200517 73 248 6.0 10.0 0.00 0.00 0.00 31 1018.0
20240223195537 73 248 5.0 10.0 0.00 0.00 0.00 31 1018.2
20240223194517 73 248 7.0 11.0 0.00 0.00 0.00 30 1018.5
20240223193517 74 225 7.0 11.0 0.00 0.00 0.00 31 1019.0
20240223192517 74 248 6.0 9.0 0.00 0.00 0.00 32 1018.9
20240223191517 73 270 5.0 9.0 0.00 0.00 0.00 32 1019.2
20240223190517 72 225 7.0 11.0 0.00 0.00 0.00 33 1019.2
20240223185517 72 180 4.0 8.0 0.00 0.00 0.00 34 1019.8
20240223184537 71 248 6.0 10.0 0.00 0.00 0.00 35 1019.8
20240223183517 70 248 4.0 8.0 0.00 0.00 0.00 35 1019.8
20240223182517 70 225 5.0 8.0 0.00 0.00 0.00 37 1020.3
20240223181537 69 248 5.0 8.0 0.00 0.00 0.00 37 1020.2
20240223180517 68 315 4.0 9.0 0.00 0.00 0.00 38 1020.0
20240223175517 67 225 4.0 8.0 0.00 0.00 0.00 41 1019.9
20240223174517 66 203 2.0 5.0 0.00 0.00 0.00 42 1019.9
20240223173517 65 248 3.0 7.0 0.00 0.00 0.00 44 1020.0
20240223172517 64 248 3.0 7.0 0.00 0.00 0.00 44 1019.7
20240223171517 63 248 3.0 5.0 0.00 0.00 0.00 45 1019.8
20240223170517 63 248 3.0 6.0 0.00 0.00 0.00 46 1020.0
20240223165537 62 225 3.0 5.0 0.00 0.00 0.00 47 1020.4
20240223164517 61 203 4.0 6.0 0.00 0.00 0.00 49 1020.2
20240223163517 61 203 3.0 6.0 0.00 0.00 0.00 50 1020.3
20240223162517 59 203 4.0 6.0 0.00 0.00 0.00 52 1020.5
20240223161517 58 203 2.0 3.0 0.00 0.00 0.00 54 1020.5
20240223160517 56 0.0 1.0 0.00 0.00 0.00 57 1020.3
20240223155517 55 293 1.0 3.0 0.00 0.00 0.00 62 1020.3
20240223154516 53 0.0 2.0 0.00 0.00 0.00 64 1020.2
20240223153516 51 0.0 0.0 0.00 0.00 0.00 69 1020.2
20240223152517 49 0.0 1.0 0.00 0.00 0.00 73 1020.1
20240223151516 48 0.0 0.0 0.00 0.00 0.00 74 1019.8
20240223150517 47 315 1.0 2.0 0.00 0.00 0.00 74 1019.4
20240223145516 46 270 1.0 2.0 0.00 0.00 0.00 74 1019.3
20240223144517 46 203 1.0 2.0 0.00 0.00 0.00 73 1019.2
20240223143516 47 203 2.0 3.0 0.00 0.00 0.00 71 1019.0
20240223142517 47 180 1.0 2.0 0.00 0.00 0.00 70 1018.9
20240223141516 47 225 1.0 3.0 0.00 0.00 0.00 70 1018.9
20240223140557 46 90 6.0 10.0 0.00 0.00 0.00 73 1018.7
20240223135657 46 338 3.0 5.0 0.00 0.00 0.00 74 1018.9
20240223134517 45 23 3.0 4.0 0.00 0.00 0.00 74 1019.0
20240223133516 45 0.0 1.0 0.00 0.00 0.00 74 1019.1
20240223132516 46 90 2.0 8.0 0.00 0.00 0.00 74 1019.6
20240223131516 46 0 1.0 3.0 0.00 0.00 0.00 75 1019.6
20240223130516 44 23 5.0 10.0 0.00 0.00 0.00 78 1019.2
20240223125516 44 135 2.0 3.0 0.00 0.00 0.00 78 1019.3
20240223124516 44 135 2.0 4.0 0.00 0.00 0.00 77 1019.2
20240223123516 44 180 1.0 3.0 0.00 0.00 0.00 77 1019.0
20240223122517 44 180 1.0 2.0 0.00 0.00 0.00 76 1019.0
20240223121517 44 113 1.0 4.0 0.00 0.00 0.00 76 1018.9
20240223120516 45 90 1.0 4.0 0.00 0.00 0.00 76 1019.0
20240223115517 45 180 1.0 3.0 0.00 0.00 0.00 75 1019.3
20240223114557 45 180 1.0 3.0 0.00 0.00 0.00 74 1019.3
20240223113516 45 225 1.0 3.0 0.00 0.00 0.00 73 1019.3
20240223112516 45 203 2.0 4.0 0.00 0.00 0.00 73 1019.3
20240223111516 45 270 1.0 3.0 0.00 0.00 0.00 72 1019.2
20240223110557 46 0.0 1.0 0.00 0.00 0.00 72 1019.4
20240223105517 47 45 2.0 3.0 0.00 0.00 0.00 70 1019.6
20240223104517 47 23 3.0 5.0 0.00 0.00 0.00 69 1019.7
20240223103536 47 23 2.0 4.0 0.00 0.00 0.00 69 1020.0
20240223102658 48 90 1.0 2.0 0.00 0.00 0.00 67 1020.4
20240223101517 49 68 1.0 3.0 0.00 0.00 0.00 65 1020.4
20240223100516 49 45 2.0 5.0 0.00 0.00 0.00 66 1020.5
20240223095516 48 68 3.0 6.0 0.00 0.00 0.00 67 1020.7
20240223094516 47 23 4.0 8.0 0.00 0.00 0.00 69 1020.5
20240223093536 47 0 4.0 6.0 0.00 0.00 0.00 71 1020.6
20240223092516 46 45 4.0 6.0 0.00 0.00 0.00 73 1020.7
20240223091516 45 45 4.0 5.0 0.00 0.00 0.00 75 1020.7
20240223090516 45 23 3.0 5.0 0.00 0.00 0.00 75 1020.9
20240223085516 45 0 2.0 3.0 0.00 0.00 0.00 74 1020.9
20240223084516 46 0.0 1.0 0.00 0.00 0.00 72 1021.0
20240223083517 47 23 2.0 4.0 0.00 0.00 0.00 70 1021.1
20240223082516 48 68 1.0 2.0 0.00 0.00 0.00 68 1021.1
20240223081516 48 23 1.0 3.0 0.00 0.00 0.00 67 1021.1
20240223080516 48 45 3.0 5.0 0.00 0.00 0.00 68 1021.1
20240223075516 48 45 3.0 6.0 0.00 0.00 0.00 67 1021.0
20240223074516 48 0 2.0 3.0 0.00 0.00 0.00 67 1021.0
20240223073516 48 0 3.0 4.0 0.00 0.00 0.00 68 1021.0
20240223072516 48 45 4.0 9.0 0.00 0.00 0.00 70 1020.7
20240223071516 47 23 3.0 4.0 0.00 0.00 0.00 72 1020.7
20240223070516 47 0.0 2.0 0.00 0.00 0.00 69 1020.7
20240223065516 48 68 1.0 2.0 0.00 0.00 0.00 68 1020.7
20240223064516 49 203 1.0 3.0 0.00 0.00 0.00 66 1020.9
20240223063516 51 23 2.0 4.0 0.00 0.00 0.00 62 1021.1
20240223062516 52 68 2.0 3.0 0.00 0.00 0.00 61 1021.3
20240223061516 52 68 3.0 5.0 0.00 0.00 0.00 60 1021.4
20240223060516 53 113 2.0 3.0 0.00 0.00 0.00 59 1021.3
20240223055516 53 68 3.0 8.0 0.00 0.00 0.00 58 1021.2
20240223054516 52 0 3.0 7.0 0.00 0.00 0.00 60 1021.1
20240223053516 51 45 4.0 6.0 0.00 0.00 0.00 62 1021.0
20240223052556 50 45 4.0 7.0 0.00 0.00 0.00 64 1020.6
20240223051516 50 45 4.0 5.0 0.00 0.00 0.00 65 1020.7
20240223050516 49 45 4.0 6.0 0.00 0.00 0.00 66 1020.4
20240223045516 50 23 2.0 3.0 0.00 0.00 0.00 64 1020.4
20240223044516 51 0.0 0.0 0.00 0.00 0.00 62 1020.1
20240223043516 52 45 1.0 2.0 0.00 0.00 0.00 60 1020.3
20240223042516 53 23 1.0 3.0 0.00 0.00 0.00 57 1020.0
20240223041517 55 45 1.0 2.0 0.00 0.00 0.00 55 1020.1
20240223040516 56 45 3.0 5.0 0.00 0.00 0.00 53 1020.3
20240223035516 56 23 3.0 5.0 0.00 0.00 0.00 52 1019.7
20240223034516 57 90 2.0 6.0 0.00 0.00 0.00 51 1019.8
20240223033536 57 113 2.0 4.0 0.00 0.00 0.00 50 1019.8
20240223032516 57 113 3.0 7.0 0.00 0.00 0.00 50 1018.8
20240223031536 57 113 3.0 7.0 0.00 0.00 0.00 51 1018.7
20240223030516 57 90 2.0 5.0 0.00 0.00 0.00 50 1018.7
20240223025536 58 113 3.0 5.0 0.00 0.00 0.00 50 1018.6
20240223024536 58 135 3.0 5.0 0.00 0.00 0.00 49 1018.6
20240223023516 58 135 4.0 8.0 0.00 0.00 0.00 48 1018.4
20240223023036 58 135 4.0 8.0 0.00 0.00 0.00 49 1018.4
20240223022016 58 135 5.0 7.0 0.00 0.00 0.00 50 1018.3
20240223021016 57 135 5.0 7.0 0.00 0.00 0.00 51 1018.2
20240223020036 57 135 4.0 5.0 0.00 0.00 0.00 50 1017.9
20240223015016 58 135 4.0 4.0 0.00 0.00 0.00 49 1017.8
20240223014016 59 158 2.0 3.0 0.00 0.00 0.00 47 1017.6